Main page
METAR-TAF:

METAR-TAF

Airports :

Dala Airport

Borlänge, Sweden

latitude: 60-26N, longitude: 015-31E, elevation: 145 m

Current weather observation

The report was made 23 minutes ago, at 18:20 UTC
Wind 4 kt from the South/Southwest
Temperature 21°C
Humidity 69%
Pressure 1010 hPa
Visibility 10 km or more

METAR: ESSD 231820Z AUTO 20004KT 9999 NCD 21/15 Q1010

Time: 20:43 (18:43 UTC)

Forecast

The report was made 7 hours and 13 minutes ago, at 11:30 UTC
Forecast valid from 23 at 12 UTC to 23 at 14 UTC
Wind 3 kt from the Southwest
Visibility 10 km or more
Scattered clouds at a height of 2000 ft
Probability 40%
from 23 at 12 UTC to 23 at 14 UTC
Scattered clouds at a height of 2000 ft, Towering cumulus.

TAF: ESSD 231130Z 2312/2314 22003KT 9999 SCT020 PROB40 2312/2314 SCT020TCU

Weather observations and forecasts of more than 4000 airports (METAR and TAF reports).

The available stations are represented by yellow and red dots on the map.

Hover mouse over dot to see the name of the station.

Then click to see weather observations and forecasts.

To change the map : click on the green buttons with a black cross to zoom in, on the green button with a dash to zoom out, or on the green arrows for adjacent maps.


METAR-TAF: